Řízení letového provozu České republiky
Letiste: LKCV Aktualizace: 22.09.2019 09:00:35  UTC
 METAR LKCV 22.09. 09:00 ...
METAR LKCV 220900Z 12011KT CAVOK 17/05 Q1017 NOSIG RMK BLU BLU=
 TAF LKCV 22.09. 05:00 ...
TAF LKCV 220500Z 2206/2306 08005KT CAVOK      BECMG 2207/2209 14010KT      TEMPO 2212/2218 14010G20KT      BECMG 2218/2220 11005KT=